Time;durP1;ratioP1;P1;durP2;ratioP2;P2;SDS_P1;SDS_P2;PMS_P1;PMS_P2;Temp;Humidity;BMP_temperature;BMP_pressure;BME280_temperature;BME280_humidity;BME280_pressure;Samples;Min_cycle;Max_cycle;Signal;HPM_P1;HPM_P2
2023/10/05 00:00:37;;;;;;;1.02;0.60;;;;;;;20.55;45.24;101869.47;4990235;28;20476;-82
2023/10/05 00:03:06;;;;;;;1.48;0.70;;;;;;;20.38;45.64;101861.81;4990163;28;20394;-81
2023/10/05 00:05:36;;;;;;;0.90;0.50;;;;;;;20.32;45.82;101861.78;4991295;28;20396;-83
2023/10/05 00:08:07;;;;;;;0.50;0.50;;;;;;;20.31;45.78;101863.66;4990133;28;20889;-81
2023/10/05 00:10:35;;;;;;;0.65;0.55;;;;;;;20.34;45.55;101860.53;5005735;28;20466;-82
2023/10/05 00:13:07;;;;;;;0.63;0.45;;;;;;;20.34;45.64;101862.41;5014890;28;20896;-81
2023/10/05 00:16:20;;;;;;;1.20;0.70;;;;;;;20.38;45.54;101860.94;5029912;28;20402;-82
2023/10/05 00:18:50;;;;;;;0.60;0.40;;;;;;;20.39;45.35;101860.75;4999271;28;20516;-81
2023/10/05 00:21:19;;;;;;;0.80;0.70;;;;;;;20.29;45.59;101862.19;5012065;28;20464;-81
2023/10/05 00:23:54;;;;;;;0.57;0.45;;;;;;;20.34;45.46;101863.22;4980911;28;20405;-80
2023/10/05 00:26:27;;;;;;;0.50;0.40;;;;;;;20.36;45.46;101863.03;5030379;28;20378;-81
2023/10/05 00:29:08;;;;;;;0.40;0.40;;;;;;;20.23;45.57;101858.47;5030348;28;20398;-81
2023/10/05 00:31:49;;;;;;;0.55;0.45;;;;;;;20.21;45.73;101858.66;5027528;28;20877;-81
2023/10/05 00:36:49;;;;;;;0.70;0.50;;;;;;;20.23;45.17;101858.47;5029828;28;20406;-78
2023/10/05 00:39:19;;;;;;;0.83;0.63;;;;;;;20.21;45.39;101864.06;5029666;28;20383;-79
2023/10/05 00:41:49;;;;;;;0.70;0.50;;;;;;;20.23;45.21;101869.25;5012146;28;20449;-79
2023/10/05 00:44:15;;;;;;;0.67;0.40;;;;;;;20.17;45.20;101862.81;5027969;28;20413;-80
2023/10/05 00:46:51;;;;;;;0.85;0.60;;;;;;;20.20;45.23;101875.03;5027545;28;20382;-81
2023/10/05 00:49:22;;;;;;;1.00;0.73;;;;;;;20.15;45.21;101872.13;4995878;28;20412;-79
2023/10/05 00:54:30;;;;;;;0.70;0.60;;;;;;;20.18;45.22;101874.41;5013142;28;20830;-79
2023/10/05 00:57:05;;;;;;;0.40;0.32;;;;;;;20.17;45.04;101867.38;5011613;28;20422;-79
2023/10/05 00:59:32;;;;;;;0.82;0.75;;;;;;;20.25;44.98;101878.75;5029919;28;20988;-80
2023/10/05 01:05:16;;;;;;;0.65;0.40;;;;;;;20.16;44.86;101877.28;5029291;28;20398;-82
2023/10/05 01:07:43;;;;;;;0.50;0.40;;;;;;;20.18;45.09;101877.09;5023409;28;20402;-81
2023/10/05 01:10:21;;;;;;;0.60;0.45;;;;;;;20.13;45.03;101875.03;5029376;28;20481;-81
2023/10/05 01:12:48;;;;;;;1.17;1.10;;;;;;;20.09;45.12;101872.94;5013048;28;20402;-81
2023/10/05 01:15:22;;;;;;;0.55;0.40;;;;;;;20.13;45.01;101874.19;5030166;28;20386;-82
2023/10/05 01:17:52;;;;;;;0.73;0.53;;;;;;;20.00;45.08;101873.13;4979279;28;20424;-81
2023/10/05 01:22:46;;;;;;;0.95;0.50;;;;;;;19.90;45.35;101861.94;5028823;28;20394;-80
2023/10/05 01:25:16;;;;;;;0.73;0.55;;;;;;;19.90;45.44;101863.78;5029142;28;20401;-81
2023/10/05 01:27:47;;;;;;;0.70;0.50;;;;;;;19.93;45.23;101874.97;5010666;28;20754;-78
2023/10/05 01:30:13;;;;;;;0.77;0.47;;;;;;;19.95;45.54;101862.19;4994589;28;20398;-79
2023/10/05 01:32:41;;;;;;;0.70;0.60;;;;;;;19.99;45.45;101866.09;5028306;28;20399;-81
2023/10/05 01:35:17;;;;;;;0.80;0.70;;;;;;;20.01;45.31;101866.72;5011267;28;20862;-80
2023/10/05 01:37:44;;;;;;;0.67;0.50;;;;;;;19.86;45.44;101860.69;5010040;28;20987;-81
2023/10/05 01:42:45;;;;;;;0.90;0.63;;;;;;;19.80;45.42;101848.88;5028636;28;20440;-78
2023/10/05 01:45:17;;;;;;;0.75;0.40;;;;;;;19.83;45.24;101863.81;5028423;28;20417;-81
2023/10/05 01:47:47;;;;;;;0.50;0.32;;;;;;;19.85;45.46;101854.47;5010847;28;20394;-82
2023/10/05 01:50:25;;;;;;;0.40;0.30;;;;;;;19.79;45.32;101852.63;5012324;28;20401;-78
2023/10/05 01:55:34;;;;;;;0.60;0.60;;;;;;;19.76;45.34;101857.56;5028802;28;20904;-78
2023/10/05 01:58:02;;;;;;;0.30;0.30;;;;;;;19.69;45.50;101857.50;5028709;28;20402;-79
2023/10/05 02:00:31;;;;;;;0.77;0.68;;;;;;;19.63;45.60;101861.84;5028018;28;20382;-80
2023/10/05 02:03:00;;;;;;;0.40;0.30;;;;;;;19.62;45.66;101865.56;5027962;28;20456;-80
2023/10/05 02:05:30;;;;;;;0.55;0.40;;;;;;;19.59;45.67;101868.66;5010218;28;20397;-80
2023/10/05 02:07:56;;;;;;;0.52;0.43;;;;;;;19.55;45.70;101864.69;5010233;28;20456;-78
2023/10/05 02:10:22;;;;;;;0.30;0.30;;;;;;;19.55;45.54;101864.69;4993267;28;20473;-80
2023/10/05 02:12:53;;;;;;;0.43;0.43;;;;;;;19.51;45.61;101870.69;5010087;28;20490;-80
2023/10/05 02:15:19;;;;;;;1.30;0.50;;;;;;;19.39;46.05;101873.97;5028479;28;20382;-80
2023/10/05 02:17:49;;;;;;;0.40;0.40;;;;;;;19.29;46.30;101868.94;5028092;28;20778;-82
2023/10/05 02:20:32;;;;;;;0.22;0.22;;;;;;;19.15;46.64;101874.47;5009877;28;20421;-79
2023/10/05 02:23:01;;;;;;;0.22;0.22;;;;;;;19.18;46.72;101882.13;5010298;28;20880;-79
2023/10/05 02:25:34;;;;;;;0.30;0.30;;;;;;;19.18;46.64;101880.28;5028049;28;20398;-82
2023/10/05 02:28:08;;;;;;;0.40;0.40;;;;;;;19.06;46.68;101874.63;5010405;28;20405;-82
2023/10/05 02:30:36;;;;;;;0.40;0.40;;;;;;;18.99;46.83;101872.91;5008718;28;20414;-82
2023/10/05 02:33:04;;;;;;;0.30;0.30;;;;;;;18.87;47.35;101886.91;5010141;28;20908;-83
2023/10/05 02:35:32;;;;;;;0.65;0.65;;;;;;;18.85;47.44;101878.22;5027275;28;20637;-80
2023/10/05 02:37:58;;;;;;;0.20;0.20;;;;;;;18.85;47.40;101894.34;5010361;28;20774;-82
2023/10/05 02:40:34;;;;;;;0.20;0.20;;;;;;;18.77;47.50;101886.38;5009906;28;20394;-78
2023/10/05 02:43:03;;;;;;;0.20;0.20;;;;;;;18.80;47.61;101896.75;5027917;28;20428;-80
2023/10/05 02:45:29;;;;;;;0.30;0.30;;;;;;;18.76;47.58;101894.63;5010124;28;20461;-81
2023/10/05 02:47:54;;;;;;;0.55;0.47;;;;;;;18.65;48.05;101891.44;5009847;28;20394;-80
2023/10/05 02:50:21;;;;;;;0.77;0.63;;;;;;;18.64;48.01;101903.25;5028090;28;20492;-81
2023/10/05 02:52:46;;;;;;;0.30;0.30;;;;;;;18.59;48.04;101908.34;5010362;28;20382;-78
2023/10/05 02:55:14;;;;;;;0.25;0.25;;;;;;;18.61;48.16;101913.53;5046109;28;20392;-79
2023/10/05 02:57:41;;;;;;;0.47;0.40;;;;;;;18.56;48.12;101906.06;5049738;28;20408;-79
2023/10/05 03:00:16;;;;;;;0.70;0.40;;;;;;;18.58;48.02;101898.63;5032243;28;20401;-81
2023/10/05 03:02:45;;;;;;;0.28;0.28;;;;;;;18.65;47.85;101914.81;5050245;28;20393;-79
2023/10/05 03:05:12;;;;;;;0.30;0.30;;;;;;;18.71;47.60;101914.88;5052690;28;20423;-79
2023/10/05 03:07:41;;;;;;;0.13;0.13;;;;;;;18.60;47.93;101914.56;5048563;28;20468;-80
2023/10/05 03:10:15;;;;;;;0.17;0.17;;;;;;;18.58;47.77;101913.91;5048483;28;20396;-80
2023/10/05 03:12:43;;;;;;;0.20;0.20;;;;;;;18.52;48.05;101920.91;5027095;28;20394;-80
2023/10/05 03:15:13;;;;;;;0.30;0.30;;;;;;;18.50;48.00;101915.72;5026845;28;20421;-82
2023/10/05 03:17:39;;;;;;;0.20;0.20;;;;;;;18.57;47.97;101926.53;5010845;28;20540;-81
2023/10/05 03:20:15;;;;;;;0.10;0.10;;;;;;;18.54;47.92;101924.22;5027297;28;20405;-83
2023/10/05 03:22:45;;;;;;;0.20;0.20;;;;;;;18.59;47.71;101919.09;5010498;28;20459;-81
2023/10/05 03:25:16;;;;;;;0.22;0.20;;;;;;;18.60;47.62;101919.91;5010606;28;20533;-83
2023/10/05 03:27:45;;;;;;;0.13;0.13;;;;;;;18.47;48.03;101917.94;5026950;28;20425;-80
2023/10/05 03:30:14;;;;;;;0.20;0.20;;;;;;;18.44;48.24;101923.69;5010691;28;20455;-81
2023/10/05 03:32:42;;;;;;;0.43;0.30;;;;;;;18.30;48.53;101928.13;5027258;28;20385;-80
2023/10/05 03:35:13;;;;;;;0.10;0.10;;;;;;;18.23;48.71;101930.75;5027016;28;20405;-82
2023/10/05 03:37:41;;;;;;;0.22;0.22;;;;;;;18.32;48.50;101928.78;4991110;28;20411;-79
2023/10/05 03:40:19;;;;;;;0.23;0.23;;;;;;;18.26;48.57;101927.69;4990689;28;20902;-80
2023/10/05 03:42:57;;;;;;;0.20;0.20;;;;;;;18.31;48.51;101933.31;5008941;28;20420;-80
2023/10/05 03:45:23;;;;;;;0.20;0.20;;;;;;;18.24;48.71;101923.50;4995673;28;20748;-79
2023/10/05 03:47:49;;;;;;;0.33;0.33;;;;;;;18.24;48.66;101934.25;5047125;28;20424;-78
2023/10/05 03:50:17;;;;;;;0.45;0.38;;;;;;;18.21;49.13;101940.03;5046948;28;20388;-78
2023/10/05 03:52:46;;;;;;;0.22;0.22;;;;;;;18.17;48.79;101939.56;5049785;28;20931;-81
2023/10/05 03:55:18;;;;;;;0.77;0.77;;;;;;;18.12;48.97;101932.06;5051731;28;20389;-80
2023/10/05 03:57:44;;;;;;;0.20;0.20;;;;;;;18.07;49.19;101937.19;5052436;28;20946;-81
2023/10/05 04:00:35;;;;;;;0.30;0.30;;;;;;;18.04;49.41;101942.94;5052690;28;20496;-83
2023/10/05 04:03:02;;;;;;;0.20;0.20;;;;;;;17.96;49.57;101937.69;5035058;28;20413;-82
2023/10/05 04:05:28;;;;;;;0.70;0.70;;;;;;;17.99;49.50;101944.50;5052434;28;20388;-81
2023/10/05 04:08:03;;;;;;;0.28;0.22;;;;;;;18.01;49.48;101937.13;5052102;28;20385;-82
2023/10/05 04:10:45;;;;;;;0.60;0.30;;;;;;;18.05;49.38;101938.41;5051812;28;20385;-82
2023/10/05 04:13:14;;;;;;;0.30;0.30;;;;;;;18.03;49.49;101945.81;5052154;28;20401;-82
2023/10/05 04:15:41;;;;;;;0.40;0.38;;;;;;;17.96;49.60;101946.56;5051078;28;20922;-81
2023/10/05 04:18:15;;;;;;;0.30;0.30;;;;;;;17.88;50.04;101946.69;5052029;28;20404;-82
2023/10/05 04:20:57;;;;;;;0.22;0.20;;;;;;;17.87;50.17;101953.06;5036415;28;20393;-81
2023/10/05 04:23:29;;;;;;;0.23;0.23;;;;;;;17.86;50.04;101942.50;5050290;28;20384;-82
2023/10/05 04:25:58;;;;;;;0.50;0.50;;;;;;;17.90;49.99;101947.31;5052561;28;20414;-82
2023/10/05 04:28:33;;;;;;;0.70;0.70;;;;;;;17.95;49.81;101954.78;5050787;28;20926;-82
2023/10/05 04:30:59;;;;;;;0.20;0.20;;;;;;;17.93;49.90;101952.31;5052323;28;20385;-80
2023/10/05 04:33:29;;;;;;;0.43;0.43;;;;;;;17.96;49.86;101962.66;5050687;28;20752;-80
2023/10/05 04:35:55;;;;;;;0.70;0.57;;;;;;;17.90;49.98;101966.09;5052170;28;20906;-83
2023/10/05 04:38:26;;;;;;;0.90;0.70;;;;;;;17.82;50.26;101957.28;5051169;28;20910;-81
2023/10/05 04:40:52;;;;;;;3.40;0.85;;;;;;;17.78;50.33;101964.88;5047691;28;20393;-84
2023/10/05 04:43:20;;;;;;;0.30;0.30;;;;;;;17.77;50.55;101964.06;5033794;28;20392;-84
2023/10/05 04:45:47;;;;;;;0.30;0.30;;;;;;;17.74;50.73;101974.31;5034318;28;20395;-84
2023/10/05 04:48:15;;;;;;;0.57;0.57;;;;;;;17.79;50.48;101974.59;5010303;28;20392;-84
2023/10/05 04:50:43;;;;;;;0.10;0.10;;;;;;;17.83;50.55;101983.94;5010090;28;20407;-84
2023/10/05 04:53:13;;;;;;;0.20;0.20;;;;;;;17.74;50.88;101983.19;4993653;28;20465;-82
2023/10/05 04:55:43;;;;;;;0.70;0.70;;;;;;;17.74;50.81;101980.50;5011344;28;20774;-83
2023/10/05 04:58:23;;;;;;;0.40;0.40;;;;;;;17.69;51.05;101990.13;4994048;28;20407;-83
2023/10/05 05:00:54;;;;;;;0.23;0.23;;;;;;;17.74;50.91;101991.25;4992674;28;20450;-82
2023/10/05 05:08:34;;;;;;;0.85;0.85;;;;;;;17.85;50.57;101983.75;5009162;28;20458;-81
2023/10/05 05:11:03;;;;;;;0.33;0.33;;;;;;;17.90;50.46;101986.72;5009316;28;20396;-81
2023/10/05 05:13:28;;;;;;;0.30;0.30;;;;;;;17.92;50.37;101990.06;4993001;28;20462;-80
2023/10/05 05:15:55;;;;;;;0.50;0.50;;;;;;;17.95;50.30;101993.19;5008169;28;20404;-80
2023/10/05 05:18:21;;;;;;;1.33;0.70;;;;;;;17.81;50.83;101996.69;4992236;28;20440;-80
2023/10/05 05:20:47;;;;;;;0.10;0.10;;;;;;;17.87;50.78;101993.28;5008644;28;20947;-80
2023/10/05 05:23:16;;;;;;;0.40;0.40;;;;;;;17.91;50.58;101999.94;5008726;28;20423;-81
2023/10/05 05:25:45;;;;;;;0.40;0.30;;;;;;;17.90;50.55;101998.28;5030504;28;20381;-80
2023/10/05 05:28:10;;;;;;;0.35;0.22;;;;;;;17.80;50.91;102003.06;5051194;28;20399;-81
2023/10/05 05:30:39;;;;;;;0.30;0.30;;;;;;;17.76;51.16;102009.81;5052087;28;20373;-80
2023/10/05 05:33:13;;;;;;;0.20;0.20;;;;;;;17.78;51.03;102013.16;5051499;28;20834;-80
2023/10/05 05:35:40;;;;;;;0.30;0.30;;;;;;;17.86;50.94;102017.59;5050963;28;20423;-81
2023/10/05 05:38:09;;;;;;;0.23;0.23;;;;;;;17.78;51.17;102013.97;5051329;28;20436;-81
2023/10/05 05:40:38;;;;;;;1.10;0.90;;;;;;;17.80;51.31;102018.34;5017872;28;20377;-81
2023/10/05 05:43:08;;;;;;;0.35;0.35;;;;;;;17.68;51.58;102010.75;5052195;28;20381;-80
2023/10/05 05:45:45;;;;;;;0.40;0.40;;;;;;;17.70;51.69;102015.91;5051540;28;20466;-81
2023/10/05 05:48:14;;;;;;;0.20;0.20;;;;;;;17.87;51.20;102013.91;5036110;28;20470;-82
2023/10/05 05:50:44;;;;;;;0.25;0.25;;;;;;;17.98;50.66;102016.13;5033996;28;20954;-80
2023/10/05 05:53:13;;;;;;;0.20;0.20;;;;;;;18.10;50.76;102024.53;5033812;28;20583;-81
2023/10/05 05:55:43;;;;;;;0.20;0.20;;;;;;;18.14;50.72;102023.97;5033075;28;20396;-80
2023/10/05 05:58:14;;;;;;;0.30;0.30;;;;;;;18.22;50.67;102014.97;5034066;28;20417;-80
2023/10/05 06:00:45;;;;;;;0.70;0.38;;;;;;;18.28;50.46;102022.25;5017616;28;20483;-80
2023/10/05 06:03:12;;;;;;;0.20;0.20;;;;;;;18.27;50.65;102012.53;5051191;28;20377;-80
2023/10/05 06:05:39;;;;;;;0.60;0.32;;;;;;;18.41;50.77;102021.59;4999126;28;20377;-79
2023/10/05 06:08:08;;;;;;;0.60;0.60;;;;;;;18.28;51.54;102026.81;5051001;28;20396;-80
2023/10/05 06:10:35;;;;;;;0.30;0.30;;;;;;;18.26;51.59;102028.84;5032515;28;20472;-81
2023/10/05 06:13:02;;;;;;;0.20;0.20;;;;;;;18.37;51.77;102027.53;5050387;28;20487;-79
2023/10/05 06:15:30;;;;;;;0.35;0.35;;;;;;;18.53;51.46;102030.81;5031574;28;20420;-81
2023/10/05 06:17:59;;;;;;;0.47;0.47;;;;;;;18.60;51.30;102041.63;5049123;28;20400;-79
2023/10/05 06:20:25;;;;;;;0.30;0.30;;;;;;;18.67;51.12;102047.91;5049049;28;20388;-80
2023/10/05 06:22:51;;;;;;;0.30;0.30;;;;;;;18.79;50.82;102040.13;5050232;28;20468;-80
2023/10/05 06:25:17;;;;;;;2.30;0.80;;;;;;;18.85;50.48;102044.78;5050078;28;20456;-80
2023/10/05 06:27:45;;;;;;;0.20;0.20;;;;;;;18.87;50.54;102049.94;5050217;28;20472;-79
2023/10/05 06:30:11;;;;;;;0.47;0.47;;;;;;;18.97;50.23;102055.84;5048665;28;20906;-78
2023/10/05 06:32:38;;;;;;;3.47;0.63;;;;;;;18.76;50.75;102058.50;5050073;28;20395;-78
2023/10/05 06:35:09;;;;;;;0.30;0.30;;;;;;;18.85;50.68;102055.53;5049994;28;20377;-82
2023/10/05 06:37:39;;;;;;;0.52;0.52;;;;;;;19.05;49.79;102055.72;5048635;28;20470;-80
2023/10/05 06:40:12;;;;;;;0.30;0.30;;;;;;;19.18;49.10;102068.44;5048146;28;20441;-79
2023/10/05 06:42:44;;;;;;;0.22;0.22;;;;;;;19.27;48.86;102069.97;5049296;28;20479;-80
2023/10/05 06:45:13;;;;;;;1.50;0.52;;;;;;;19.42;48.49;102066.34;5029360;28;20400;-80
2023/10/05 06:47:39;;;;;;;0.35;0.35;;;;;;;19.38;47.68;102070.47;5032182;28;20480;-81
2023/10/05 06:50:10;;;;;;;0.38;0.38;;;;;;;19.38;47.61;102065.91;5049888;28;20425;-81
2023/10/05 06:52:39;;;;;;;0.93;0.75;;;;;;;19.37;47.28;102066.09;5016389;28;20392;-86
2023/10/05 06:55:08;;;;;;;0.25;0.25;;;;;;;19.47;47.05;102067.41;5053683;28;20396;-85
2023/10/05 06:57:37;;;;;;;0.30;0.20;;;;;;;19.56;46.80;102062.72;5051717;28;20424;-81
2023/10/05 07:00:40;;;;;;;0.30;0.30;;;;;;;19.74;46.65;102073.00;5034133;28;20471;-81
2023/10/05 07:03:01;;;;;;;0.40;0.40;;;;;;;19.71;46.63;102069.84;5051971;28;20396;-88
2023/10/05 07:05:29;;;;;;;0.43;0.43;;;;;;;19.80;46.28;102076.75;5044768;28;20384;-82
2023/10/05 07:07:58;;;;;;;0.30;0.30;;;;;;;19.84;46.11;102070.78;4995246;28;20396;-86
2023/10/05 07:10:27;;;;;;;0.40;0.40;;;;;;;19.88;46.18;102068.53;5027945;28;20466;-86
2023/10/05 07:12:53;;;;;;;0.20;0.20;;;;;;;20.01;46.03;102078.53;5058282;28;20490;-88
2023/10/05 07:15:19;;;;;;;0.70;0.70;;;;;;;20.03;45.72;102084.56;5052868;28;20384;-88
2023/10/05 07:17:56;;;;;;;0.60;0.60;;;;;;;20.07;45.62;102096.56;5054836;28;20412;-89
2023/10/05 07:20:43;;;;;;;0.40;0.40;;;;;;;20.02;45.33;102088.25;5024180;28;20432;-87
2023/10/05 07:23:08;;;;;;;0.10;0.10;;;;;;;19.98;45.62;102087.81;5053737;28;20389;-86
2023/10/05 07:25:41;;;;;;;0.40;0.40;;;;;;;19.95;45.45;102092.78;5053828;28;20392;-89
2023/10/05 07:28:14;;;;;;;0.30;0.30;;;;;;;20.03;45.19;102100.69;5041787;28;20483;-85
2023/10/05 07:30:45;;;;;;;0.32;0.32;;;;;;;20.13;44.76;102100.31;5027748;28;20424;-86
2023/10/05 07:33:15;;;;;;;0.32;0.32;;;;;;;20.23;44.64;102090.84;5062655;28;20395;-88
2023/10/05 07:35:43;;;;;;;0.30;0.30;;;;;;;20.44;44.02;102078.31;5007884;28;20438;-87
2023/10/05 07:38:11;;;;;;;0.15;0.15;;;;;;;20.61;44.08;102084.19;5004642;28;20411;-87
2023/10/05 07:40:37;;;;;;;0.20;0.20;;;;;;;20.59;43.89;102087.03;5037360;28;20891;-86
2023/10/05 07:43:06;;;;;;;0.70;0.70;;;;;;;20.71;43.63;102084.63;5038387;28;20404;-85
2023/10/05 07:45:33;;;;;;;1.00;0.60;;;;;;;20.66;43.81;102095.19;5056654;28;20756;-87
2023/10/05 07:48:00;;;;;;;0.47;0.47;;;;;;;20.48;44.06;102089.50;5022495;28;20948;-85
2023/10/05 07:50:26;;;;;;;0.40;0.40;;;;;;;20.60;43.82;102083.31;5054940;28;20388;-85
2023/10/05 07:52:52;;;;;;;0.30;0.30;;;;;;;20.74;43.69;102086.06;5005567;28;20395;-84
2023/10/05 07:55:18;;;;;;;0.40;0.40;;;;;;;20.86;43.31;102087.13;5038724;28;20380;-83
2023/10/05 07:57:46;;;;;;;0.40;0.40;;;;;;;20.60;43.82;102091.41;5055698;28;20408;-86
2023/10/05 08:00:12;;;;;;;0.30;0.30;;;;;;;20.50;44.23;102090.94;5038363;28;20454;-83
2023/10/05 08:02:47;;;;;;;0.30;0.30;;;;;;;20.79;43.93;102089.81;5054969;28;20381;-88
2023/10/05 08:05:13;;;;;;;0.60;0.60;;;;;;;20.88;43.64;102086.94;5055990;28;20396;-88
2023/10/05 08:07:39;;;;;;;0.30;0.30;;;;;;;21.08;43.55;102085.06;5014426;28;20419;-88
2023/10/05 08:10:13;;;;;;;0.28;0.28;;;;;;;21.07;43.38;102085.28;4981147;28;20408;-89
2023/10/05 08:12:39;;;;;;;0.30;0.30;;;;;;;21.12;43.47;102090.88;5011405;28;20428;-88
2023/10/05 08:15:08;;;;;;;1.93;0.80;;;;;;;21.25;43.17;102088.22;4997252;28;20511;-89
2023/10/05 08:17:36;;;;;;;0.60;0.50;;;;;;;21.42;43.04;102094.00;4996015;28;20489;-90
2023/10/05 08:20:05;;;;;;;0.55;0.55;;;;;;;21.44;42.66;102100.00;4997210;28;20394;-89
2023/10/05 08:22:41;;;;;;;0.52;0.52;;;;;;;21.50;42.61;102095.66;5001015;28;20509;-89
2023/10/05 08:25:13;;;;;;;0.32;0.32;;;;;;;21.66;42.50;102097.09;4996909;28;20900;-87
2023/10/05 08:27:42;;;;;;;1.40;0.60;;;;;;;21.65;42.20;102084.69;4995281;28;20394;-91
2023/10/05 08:30:09;;;;;;;0.20;0.20;;;;;;;21.79;42.21;102072.81;4993783;28;20773;-91
2023/10/05 08:32:39;;;;;;;0.98;0.63;;;;;;;21.89;42.07;102083.97;4996920;28;20912;-90
2023/10/05 08:35:21;;;;;;;0.28;0.28;;;;;;;21.57;42.10;102088.41;4981539;28;20390;-90
2023/10/05 08:37:59;;;;;;;0.13;0.13;;;;;;;21.79;41.96;102074.66;5006736;28;20412;-88
2023/10/05 08:40:40;;;;;;;0.20;0.20;;;;;;;21.77;42.05;102078.41;5022100;28;20415;-90
2023/10/05 08:43:11;;;;;;;0.28;0.25;;;;;;;21.87;41.60;102074.44;4985816;28;20384;-89
2023/10/05 08:45:55;;;;;;;0.30;0.30;;;;;;;22.02;41.62;102080.44;5015793;28;20419;-89
2023/10/05 08:48:46;;;;;;;1.87;0.73;;;;;;;21.85;41.97;102087.31;5017579;28;20404;-90
2023/10/05 08:51:15;;;;;;;0.60;0.60;;;;;;;21.69;42.39;102092.13;5016542;28;20404;-89
2023/10/05 08:53:55;;;;;;;0.60;0.60;;;;;;;21.61;43.02;102081.56;5019056;28;20388;-88
2023/10/05 08:56:22;;;;;;;0.30;0.30;;;;;;;22.13;42.15;102079.75;5020782;28;20392;-90
2023/10/05 08:58:53;;;;;;;0.90;0.90;;;;;;;22.19;41.68;102088.03;5016779;28;20380;-90
2023/10/05 09:01:30;;;;;;;0.38;0.38;;;;;;;22.25;41.86;102079.91;5016052;28;20414;-89
2023/10/05 09:04:01;;;;;;;1.10;0.70;;;;;;;22.39;41.54;102069.06;5013847;28;20480;-90
2023/10/05 09:06:31;;;;;;;0.40;0.40;;;;;;;22.51;41.72;102068.16;5016169;28;20435;-90
2023/10/05 09:09:13;;;;;;;0.40;0.40;;;;;;;22.61;41.48;102073.09;5014638;28;20426;-90
2023/10/05 09:11:42;;;;;;;0.47;0.47;;;;;;;22.39;41.84;102056.38;5001074;28;20887;-89
2023/10/05 09:14:21;;;;;;;0.88;0.60;;;;;;;22.69;41.39;102069.31;5033449;28;21039;-91
2023/10/05 09:16:55;;;;;;;0.38;0.38;;;;;;;22.82;41.33;102049.47;5036886;28;20481;-90
2023/10/05 09:19:29;;;;;;;1.70;1.60;;;;;;;22.79;41.44;102053.44;5037862;28;20695;-92
2023/10/05 09:22:10;;;;;;;0.40;0.40;;;;;;;22.72;41.36;102063.47;5039205;28;20489;-87
2023/10/05 09:24:37;;;;;;;0.40;0.40;;;;;;;22.81;41.49;102045.91;5039546;28;20382;-86
2023/10/05 09:27:17;;;;;;;0.30;0.30;;;;;;;23.09;40.96;102050.13;5035276;28;20455;-89
2023/10/05 09:29:51;;;;;;;0.30;0.30;;;;;;;22.95;41.27;102052.06;4992384;28;20400;-89
2023/10/05 09:32:25;;;;;;;0.50;0.40;;;;;;;23.06;40.95;102051.38;5025165;28;20406;-91
2023/10/05 09:35:00;;;;;;;0.10;0.10;;;;;;;23.28;40.91;102037.44;5027983;28;20409;-89
2023/10/05 09:37:27;;;;;;;0.47;0.47;;;;;;;23.50;40.57;102046.00;5037686;28;20418;-90
2023/10/05 09:39:59;;;;;;;1.10;0.70;;;;;;;23.59;40.52;102047.34;5035964;28;20398;-87
2023/10/05 09:42:40;;;;;;;0.70;0.40;;;;;;;23.69;40.75;102046.00;5051137;28;20390;-88
2023/10/05 09:45:12;;;;;;;0.30;0.30;;;;;;;23.61;40.51;102050.66;5027142;28;20422;-86
2023/10/05 09:47:40;;;;;;;0.20;0.20;;;;;;;23.69;40.48;102046.00;5037022;28;20854;-89
2023/10/05 09:50:10;;;;;;;0.40;0.40;;;;;;;23.80;39.86;102043.38;5013318;28;20500;-88
2023/10/05 09:52:45;;;;;;;0.30;0.30;;;;;;;23.56;39.91;102046.97;5033801;28;20950;-88
2023/10/05 09:55:17;;;;;;;0.40;0.40;;;;;;;23.64;40.03;102044.81;5035610;28;20464;-88
2023/10/05 09:57:46;;;;;;;0.50;0.30;;;;;;;23.75;39.81;102034.25;5037508;28;20422;-89
2023/10/05 10:03:01;;;;;;;0.50;0.50;;;;;;;23.79;39.91;102035.47;5034174;28;20405;-87
2023/10/05 10:05:35;;;;;;;0.40;0.40;;;;;;;23.74;39.81;102038.84;5017154;28;20414;-87
2023/10/05 10:08:20;;;;;;;0.30;0.30;;;;;;;23.88;40.02;102027.88;5013042;28;20698;-87
2023/10/05 10:11:17;;;;;;;0.22;0.22;;;;;;;24.17;39.55;102018.16;5028993;28;20451;-89
2023/10/05 10:14:00;;;;;;;0.60;0.60;;;;;;;24.02;39.56;102024.81;5000802;28;20451;-87
2023/10/05 10:16:27;;;;;;;1.00;0.50;;;;;;;24.18;39.69;102001.69;5015539;28;20420;-87
2023/10/05 10:19:04;;;;;;;0.70;0.70;;;;;;;24.24;39.51;102011.59;5015719;28;20522;-88
2023/10/05 10:21:42;;;;;;;0.30;0.30;;;;;;;24.38;39.26;102003.25;4997436;28;20392;-87
2023/10/05 10:24:15;;;;;;;0.37;0.37;;;;;;;24.52;39.24;102002.00;4936834;28;20398;-87
2023/10/05 10:26:45;;;;;;;1.10;0.50;;;;;;;24.63;39.09;101999.59;4998616;28;20475;-88
2023/10/05 10:29:16;;;;;;;0.27;0.27;;;;;;;24.71;39.16;101993.84;5015012;28;20403;-88
2023/10/05 10:31:49;;;;;;;0.30;0.30;;;;;;;24.69;39.19;101995.97;5014682;28;20411;-84
2023/10/05 10:34:55;;;;;;;0.20;0.20;;;;;;;24.88;38.98;101996.66;5018330;28;20396;-85
2023/10/05 10:37:36;;;;;;;0.20;0.20;;;;;;;24.92;39.02;101992.41;4932925;28;20429;-87
2023/10/05 10:43:12;;;;;;;0.40;0.40;;;;;;;24.71;38.56;101977.56;5018093;28;20430;-87
2023/10/05 10:45:49;;;;;;;0.30;0.30;;;;;;;24.57;38.54;101980.47;5001194;28;20411;-86
2023/10/05 10:48:23;;;;;;;0.50;0.50;;;;;;;24.70;38.62;101976.72;5004327;28;20402;-85
2023/10/05 10:50:59;;;;;;;0.70;0.70;;;;;;;24.93;38.75;101964.25;5027273;28;20384;-86
2023/10/05 10:53:31;;;;;;;0.30;0.30;;;;;;;24.99;38.52;101961.41;5023994;28;20392;-88
2023/10/05 10:56:04;;;;;;;0.20;0.20;;;;;;;25.06;38.44;101957.75;5014061;28;20400;-87
2023/10/05 10:58:39;;;;;;;0.88;0.88;;;;;;;25.15;38.26;101959.84;5012022;28;20551;-84
2023/10/05 11:01:29;;;;;;;0.30;0.30;;;;;;;25.31;38.12;101944.75;5015302;28;20399;-83
2023/10/05 11:04:04;;;;;;;0.37;0.37;;;;;;;25.35;38.09;101945.13;5028981;28;20392;-84
2023/10/05 11:06:30;;;;;;;0.30;0.30;;;;;;;25.30;37.75;101945.84;5027346;28;20395;-87
2023/10/05 11:08:59;;;;;;;0.60;0.60;;;;;;;25.33;37.77;101939.09;5022363;28;20399;-87
2023/10/05 11:11:26;;;;;;;0.30;0.30;;;;;;;25.15;37.90;101929.19;5010223;28;20886;-88
2023/10/05 11:14:05;;;;;;;0.35;0.35;;;;;;;25.08;38.09;101933.91;5003844;28;20423;-87
2023/10/05 11:16:43;;;;;;;0.60;0.60;;;;;;;25.08;38.00;101918.47;5019421;28;20892;-88
2023/10/05 11:19:13;;;;;;;0.20;0.20;;;;;;;25.33;37.65;101915.50;5023404;28;20383;-88
2023/10/05 11:21:48;;;;;;;0.30;0.30;;;;;;;25.42;37.63;101910.53;5020705;28;20395;-88
2023/10/05 11:24:18;;;;;;;0.22;0.22;;;;;;;25.51;37.77;101909.06;5019207;28;20486;-89
2023/10/05 11:29:48;;;;;;;0.65;0.50;;;;;;;25.69;37.62;101899.91;4997645;28;20731;-87
2023/10/05 11:32:26;;;;;;;0.30;0.30;;;;;;;25.88;37.31;101908.69;5023562;28;20836;-88
2023/10/05 11:34:55;;;;;;;1.00;0.95;;;;;;;25.64;37.60;101893.56;5006266;28;20403;-88
2023/10/05 11:37:25;;;;;;;0.40;0.40;;;;;;;25.88;37.60;101902.44;5038656;23;20433;-87
2023/10/05 11:39:59;;;;;;;0.50;0.50;;;;;;;25.91;37.19;101905.50;5044551;28;20410;-86
2023/10/05 11:42:51;;;;;;;0.30;0.30;;;;;;;25.60;37.38;101911.41;5044958;28;20397;-86
2023/10/05 11:45:18;;;;;;;0.45;0.45;;;;;;;25.59;37.68;101894.31;5040083;28;20386;-88
2023/10/05 11:47:56;;;;;;;0.70;0.70;;;;;;;25.58;37.46;101895.34;5041169;28;20447;-90
2023/10/05 11:50:27;;;;;;;0.40;0.40;;;;;;;25.64;37.52;101905.28;5041780;28;20386;-85
2023/10/05 11:53:12;;;;;;;0.50;0.50;;;;;;;25.83;37.21;101888.78;5041805;28;20394;-86
2023/10/05 11:55:39;;;;;;;0.60;0.60;;;;;;;25.78;37.00;101885.97;5041375;28;20381;-87
2023/10/05 11:58:24;;;;;;;0.40;0.40;;;;;;;25.86;37.40;101883.69;5047580;28;20546;-87
2023/10/05 12:00:51;;;;;;;0.35;0.35;;;;;;;26.01;36.84;101885.84;5039086;28;20386;-84
2023/10/05 12:03:44;;;;;;;0.63;0.60;;;;;;;26.00;37.15;101883.38;5042050;28;20398;-89
2023/10/05 12:06:23;;;;;;;0.73;0.70;;;;;;;26.08;37.18;101885.72;5043491;28;20446;-86
2023/10/05 12:08:53;;;;;;;0.32;0.32;;;;;;;26.05;37.24;101864.47;5043681;28;20426;-85
2023/10/05 12:11:38;;;;;;;0.20;0.20;;;;;;;26.16;37.04;101862.72;5044997;28;20462;-88
2023/10/05 12:14:24;;;;;;;0.30;0.30;;;;;;;26.23;36.81;101869.66;5044054;28;21021;-85